createdAt,value
2023-04-24T00:01:31.021Z,15.94
2023-04-24T00:04:00.663Z,15.91
2023-04-24T00:06:34.436Z,15.86
2023-04-24T00:09:03.777Z,15.80
2023-04-24T00:11:30.756Z,15.80
2023-04-24T00:13:57.680Z,15.78
2023-04-24T00:16:26.974Z,15.73
2023-04-24T00:18:57.222Z,15.64
2023-04-24T00:21:26.808Z,15.68
2023-04-24T00:23:55.880Z,15.65
2023-04-24T00:26:22.777Z,15.77
2023-04-24T00:28:54.240Z,15.85
2023-04-24T00:31:20.935Z,15.88
2023-04-24T00:33:47.605Z,15.86
2023-04-24T00:36:14.790Z,15.86
2023-04-24T00:38:43.953Z,15.83
2023-04-24T00:41:10.591Z,15.77
2023-04-24T00:43:37.601Z,15.75
2023-04-24T00:46:04.670Z,15.73
2023-04-24T00:48:36.282Z,15.74
2023-04-24T00:51:03.311Z,15.70
2023-04-24T00:53:30.003Z,15.80
2023-04-24T00:55:59.213Z,15.81
2023-04-24T00:58:25.986Z,15.79
2023-04-24T01:00:54.285Z,15.73
2023-04-24T01:03:23.939Z,15.70
2023-04-24T01:05:50.843Z,15.72
2023-04-24T01:08:18.055Z,15.77
2023-04-24T01:10:47.437Z,15.80
2023-04-24T01:13:14.298Z,15.87
2023-04-24T01:15:44.959Z,15.90
2023-04-24T01:18:12.096Z,15.84
2023-04-24T01:20:41.792Z,15.85
2023-04-24T01:23:16.527Z,15.87
2023-04-24T01:25:44.589Z,15.94
2023-04-24T01:28:15.544Z,15.96
2023-04-24T01:30:47.524Z,15.97
2023-04-24T01:33:14.635Z,15.93
2023-04-24T01:35:43.524Z,15.97
2023-04-24T01:38:12.359Z,15.96
2023-04-24T01:40:38.987Z,15.98
2023-04-24T01:43:06.028Z,15.98
2023-04-24T01:45:32.752Z,15.96
2023-04-24T01:48:07.416Z,15.99
2023-04-24T01:50:34.190Z,16.06
2023-04-24T01:53:03.852Z,16.09
2023-04-24T01:55:32.841Z,16.06
2023-04-24T01:58:02.013Z,15.94
2023-04-24T02:00:28.746Z,15.84
2023-04-24T02:02:57.967Z,15.65
2023-04-24T02:05:27.439Z,15.43
2023-04-24T02:07:56.154Z,15.33
2023-04-24T02:10:23.274Z,15.17
2023-04-24T02:12:49.868Z,15.14
2023-04-24T02:15:19.127Z,15.14
2023-04-24T02:17:48.492Z,15.15
2023-04-24T02:20:15.238Z,15.10
2023-04-24T02:22:44.195Z,15.05
2023-04-24T02:25:11.191Z,15.10
2023-04-24T02:27:38.157Z,15.12
2023-04-24T02:30:11.106Z,15.16
2023-04-24T02:32:38.239Z,15.12
2023-04-24T02:35:10.502Z,15.18
2023-04-24T02:37:40.079Z,15.23
2023-04-24T02:40:07.165Z,15.12
2023-04-24T02:42:33.836Z,15.05
2023-04-24T02:45:00.715Z,15.13
2023-04-24T02:47:27.666Z,15.17
2023-04-24T02:49:54.286Z,15.19
2023-04-24T02:52:20.869Z,15.20
2023-04-24T02:54:47.570Z,15.14
2023-04-24T02:57:16.877Z,15.16
2023-04-24T02:59:46.020Z,15.18
2023-04-24T03:02:12.697Z,15.14
2023-04-24T03:04:41.505Z,15.14
2023-04-24T03:07:08.184Z,15.10
2023-04-24T03:09:35.184Z,15.05
2023-04-24T03:12:01.983Z,15.06
2023-04-24T03:14:28.663Z,15.09
2023-04-24T03:16:55.290Z,15.02
2023-04-24T03:19:21.973Z,14.91
2023-04-24T03:21:58.945Z,14.88
2023-04-24T03:24:29.461Z,14.77
2023-04-24T03:26:57.934Z,14.79
2023-04-24T03:29:43.298Z,14.78
2023-04-24T03:32:12.314Z,14.64
2023-04-24T03:34:44.798Z,14.36
2023-04-24T03:37:14.306Z,14.45
2023-04-24T03:39:46.476Z,14.50
2023-04-24T03:42:15.090Z,14.54
2023-04-24T03:44:58.205Z,14.54
2023-04-24T03:47:30.401Z,14.44
2023-04-24T03:50:00.622Z,14.50
2023-04-24T03:52:27.308Z,14.52
2023-04-24T03:54:56.657Z,14.51
2023-04-24T03:57:24.177Z,14.47
2023-04-24T04:00:13.109Z,14.47
2023-04-24T04:02:51.825Z,14.46
2023-04-24T04:05:19.146Z,14.54
2023-04-24T04:08:00.435Z,14.63
2023-04-24T04:10:29.125Z,14.66
2023-04-24T04:12:56.136Z,14.64
2023-04-24T04:15:23.056Z,14.69
2023-04-24T04:17:54.445Z,14.74
2023-04-24T04:20:21.205Z,14.75
2023-04-24T04:22:48.602Z,14.55
2023-04-24T04:25:21.718Z,14.43
2023-04-24T04:28:17.850Z,14.55
2023-04-24T04:30:51.524Z,14.75
2023-04-24T04:33:18.205Z,14.85
2023-04-24T04:35:50.738Z,14.78
2023-04-24T04:38:18.716Z,14.75
2023-04-24T04:41:01.926Z,14.80
2023-04-24T04:43:32.060Z,14.78
2023-04-24T04:46:01.901Z,14.68
2023-04-24T04:48:44.198Z,14.49
2023-04-24T04:51:10.917Z,14.47
2023-04-24T04:53:40.694Z,14.57
2023-04-24T04:56:07.979Z,14.65
2023-04-24T04:59:01.472Z,14.75
2023-04-24T05:01:30.744Z,14.81
2023-04-24T05:03:57.579Z,14.92
2023-04-24T05:06:27.624Z,15.03
2023-04-24T05:08:58.286Z,15.07
2023-04-24T05:11:37.900Z,14.96
2023-04-24T05:14:04.532Z,15.01
2023-04-24T05:16:41.361Z,15.09
2023-04-24T05:19:09.749Z,15.21
2023-04-24T05:21:40.687Z,15.36
2023-04-24T05:24:08.455Z,15.41
2023-04-24T05:26:56.583Z,15.38
2023-04-24T05:29:32.393Z,15.51
2023-04-24T05:32:01.790Z,15.72
2023-04-24T05:34:30.353Z,15.91
2023-04-24T05:36:57.706Z,15.98
2023-04-24T05:39:26.063Z,16.07
2023-04-24T05:41:54.031Z,16.11
2023-04-24T05:44:23.147Z,16.10
2023-04-24T05:46:50.326Z,15.99
2023-04-24T05:49:17.175Z,15.85
2023-04-24T05:51:45.855Z,15.91
2023-04-24T05:54:13.251Z,16.00
2023-04-24T05:56:43.255Z,16.16
2023-04-24T05:59:16.200Z,16.34
2023-04-24T06:01:45.817Z,16.52
2023-04-24T06:04:19.753Z,16.61
2023-04-24T06:06:46.947Z,16.77
2023-04-24T06:09:17.924Z,16.94
2023-04-24T06:11:47.282Z,17.08
2023-04-24T06:14:16.011Z,17.03
2023-04-24T06:17:02.602Z,17.13
2023-04-24T06:19:38.064Z,17.12
2023-04-24T06:22:04.967Z,17.11
2023-04-24T06:24:34.865Z,17.15
2023-04-24T06:27:02.510Z,17.13
2023-04-24T06:29:29.306Z,17.09
2023-04-24T06:31:56.473Z,17.04
2023-04-24T06:34:23.233Z,16.89
2023-04-24T06:36:52.674Z,16.62
2023-04-24T06:39:19.564Z,16.57
2023-04-24T06:41:49.805Z,16.63
2023-04-24T06:44:20.436Z,16.60
2023-04-24T06:46:47.104Z,16.56
2023-04-24T06:49:17.289Z,16.65
2023-04-24T06:51:44.018Z,16.54
2023-04-24T06:54:10.749Z,16.51
2023-04-24T06:56:37.403Z,16.57
2023-04-24T06:59:04.294Z,16.64
2023-04-24T07:01:33.925Z,16.64
2023-04-24T07:04:03.340Z,16.61
2023-04-24T07:06:32.862Z,16.61
2023-04-24T07:09:00.805Z,16.67
2023-04-24T07:11:30.464Z,16.68
2023-04-24T07:13:57.244Z,16.87
2023-04-24T07:16:26.840Z,16.92
2023-04-24T07:18:53.477Z,16.80
2023-04-24T07:21:22.437Z,16.82
2023-04-24T07:23:51.378Z,16.82
2023-04-24T07:26:21.662Z,16.89
2023-04-24T07:28:50.786Z,16.97
2023-04-24T07:31:20.064Z,17.08
2023-04-24T07:33:49.325Z,17.08
2023-04-24T07:36:20.042Z,17.03
2023-04-24T07:38:47.186Z,16.84
2023-04-24T07:41:14.324Z,16.98
2023-04-24T07:43:41.213Z,17.02
2023-04-24T07:46:09.058Z,16.98
2023-04-24T07:48:36.112Z,17.14
2023-04-24T07:51:02.905Z,17.30
2023-04-24T07:53:34.246Z,17.46
2023-04-24T07:56:01.034Z,17.52
2023-04-24T07:58:27.664Z,17.45
2023-04-24T08:00:59.247Z,17.56
2023-04-24T08:03:28.154Z,17.69
2023-04-24T08:05:54.912Z,17.60
2023-04-24T08:08:22.786Z,17.49
2023-04-24T08:10:49.864Z,17.38
2023-04-24T08:13:21.509Z,17.31
2023-04-24T08:15:48.111Z,17.33
2023-04-24T08:18:17.304Z,17.26
2023-04-24T08:20:47.057Z,16.99
2023-04-24T08:23:13.986Z,16.89
2023-04-24T08:25:42.961Z,17.15
2023-04-24T08:28:10.368Z,17.46
2023-04-24T08:30:39.719Z,17.58
2023-04-24T08:33:08.873Z,17.65
2023-04-24T08:35:35.637Z,17.85
2023-04-24T08:38:02.283Z,17.88
2023-04-24T08:40:32.344Z,17.88
2023-04-24T08:42:58.930Z,17.95
2023-04-24T08:45:26.982Z,18.07
2023-04-24T08:47:55.021Z,17.96
2023-04-24T08:50:22.452Z,18.09
2023-04-24T08:52:54.666Z,18.20
2023-04-24T08:55:21.743Z,18.38
2023-04-24T08:57:52.617Z,18.68
2023-04-24T09:00:21.849Z,19.04
2023-04-24T09:02:50.282Z,18.95
2023-04-24T09:05:20.216Z,18.86
2023-04-24T09:07:47.470Z,18.77
2023-04-24T09:10:16.547Z,18.72
2023-04-24T09:12:43.497Z,19.04
2023-04-24T09:15:11.824Z,19.18
2023-04-24T09:17:39.099Z,19.08
2023-04-24T09:20:06.274Z,19.52
2023-04-24T09:22:32.855Z,19.65
2023-04-24T09:25:07.809Z,19.69
2023-04-24T09:27:35.359Z,19.69
2023-04-24T09:30:04.584Z,19.79
2023-04-24T09:32:32.860Z,19.60
2023-04-24T09:35:09.183Z,19.91
2023-04-24T09:37:38.689Z,20.06
2023-04-24T09:40:12.855Z,20.31
2023-04-24T09:42:39.955Z,20.68
2023-04-24T09:47:41.752Z,20.88
2023-04-24T09:50:12.678Z,20.89
2023-04-24T09:52:46.483Z,20.97
2023-04-24T09:55:14.722Z,20.85
2023-04-24T09:57:54.458Z,20.65
2023-04-24T10:00:24.265Z,20.53
2023-04-24T10:02:51.846Z,20.25
2023-04-24T10:05:19.163Z,20.12
2023-04-24T10:07:50.076Z,20.03
2023-04-24T10:10:22.870Z,20.27
2023-04-24T10:12:49.612Z,20.23
2023-04-24T10:15:17.627Z,20.22
2023-04-24T10:17:44.499Z,20.02
2023-04-24T10:20:11.696Z,19.92
2023-04-24T10:22:38.437Z,20.06
2023-04-24T10:25:06.047Z,20.21
2023-04-24T10:27:35.080Z,20.17
2023-04-24T10:30:01.765Z,19.84
2023-04-24T10:32:28.669Z,19.96
2023-04-24T10:34:58.184Z,19.91
2023-04-24T10:37:25.644Z,19.95
2023-04-24T10:39:55.513Z,20.02
2023-04-24T10:42:25.691Z,20.24
2023-04-24T10:44:57.827Z,20.17
2023-04-24T10:47:27.464Z,19.81
2023-04-24T10:49:56.530Z,19.58
2023-04-24T10:52:27.346Z,19.45
2023-04-24T10:55:08.409Z,19.44
2023-04-24T10:57:39.508Z,19.66
2023-04-24T11:00:24.698Z,19.74
2023-04-24T11:02:59.470Z,19.85
2023-04-24T11:05:48.801Z,20.18
2023-04-24T11:08:17.139Z,20.49
2023-04-24T11:10:47.537Z,20.31
2023-04-24T11:13:17.801Z,19.82
2023-04-24T11:15:44.721Z,19.73
2023-04-24T11:18:14.645Z,19.82
2023-04-24T11:20:45.082Z,19.44
2023-04-24T11:23:12.774Z,20.11
2023-04-24T11:25:42.064Z,20.70
2023-04-24T11:28:09.116Z,21.26
2023-04-24T11:30:36.464Z,21.40
2023-04-24T11:33:08.587Z,21.33
2023-04-24T11:35:41.288Z,21.05
2023-04-24T11:38:23.517Z,20.84
2023-04-24T11:40:53.877Z,20.44
2023-04-24T11:43:20.958Z,20.16
2023-04-24T11:45:50.314Z,20.31
2023-04-24T11:48:24.728Z,20.41
2023-04-24T11:50:51.681Z,20.96
2023-04-24T11:53:19.984Z,21.26
2023-04-24T11:55:47.097Z,21.67
2023-04-24T11:58:13.764Z,21.53
2023-04-24T12:00:40.701Z,21.96
2023-04-24T12:03:10.102Z,22.68
2023-04-24T12:05:37.729Z,23.04
2023-04-24T12:08:05.008Z,22.85
2023-04-24T12:10:32.439Z,22.45
2023-04-24T12:12:59.408Z,22.00
2023-04-24T12:15:26.256Z,21.20
2023-04-24T12:17:53.660Z,20.74
2023-04-24T12:20:24.912Z,20.47
2023-04-24T12:22:55.375Z,20.34
2023-04-24T12:25:26.041Z,20.13
2023-04-24T12:27:56.206Z,19.85
2023-04-24T12:30:23.096Z,19.58
2023-04-24T12:32:50.872Z,19.36
2023-04-24T12:35:21.893Z,19.16
2023-04-24T12:37:48.899Z,19.27
2023-04-24T12:40:15.861Z,19.24
2023-04-24T12:42:52.013Z,19.09
2023-04-24T12:45:19.252Z,18.98
2023-04-24T12:47:48.320Z,18.96
2023-04-24T12:50:17.430Z,18.79
2023-04-24T12:52:44.409Z,18.72
2023-04-24T12:55:13.608Z,18.79
2023-04-24T12:57:41.078Z,18.82
2023-04-24T13:00:10.260Z,18.82
2023-04-24T13:02:37.713Z,18.81
2023-04-24T13:05:04.615Z,18.69
2023-04-24T13:07:31.288Z,18.53
2023-04-24T13:10:03.222Z,18.35
2023-04-24T13:12:29.860Z,18.32
2023-04-24T13:14:59.297Z,18.31
2023-04-24T13:17:28.570Z,18.41
2023-04-24T13:19:59.866Z,18.33
2023-04-24T13:22:29.529Z,18.27
2023-04-24T13:24:57.219Z,18.24
2023-04-24T13:27:23.830Z,18.31
2023-04-24T13:29:53.346Z,18.42
2023-04-24T13:32:20.070Z,18.25
2023-04-24T13:34:49.616Z,18.25
2023-04-24T13:37:16.674Z,18.15
2023-04-24T13:39:45.788Z,18.05
2023-04-24T13:42:13.786Z,17.76
2023-04-24T13:44:45.999Z,17.56
2023-04-24T13:47:12.585Z,17.40
2023-04-24T13:49:39.646Z,17.35
2023-04-24T13:52:06.307Z,16.97
2023-04-24T13:54:33.818Z,16.71
2023-04-24T13:57:01.522Z,16.40
2023-04-24T13:59:30.542Z,16.17
2023-04-24T14:01:57.317Z,15.75
2023-04-24T14:04:24.333Z,15.15
2023-04-24T14:06:53.674Z,14.85
2023-04-24T14:09:22.755Z,14.77
2023-04-24T14:11:56.007Z,14.85
2023-04-24T14:14:22.969Z,14.85
2023-04-24T14:16:49.514Z,14.66
2023-04-24T14:19:18.576Z,14.51
2023-04-24T14:21:46.316Z,14.51
2023-04-24T14:24:12.979Z,14.38
2023-04-24T14:26:41.944Z,14.35
2023-04-24T14:29:14.836Z,14.51
2023-04-24T14:31:44.626Z,14.50
2023-04-24T14:34:11.471Z,14.69
2023-04-24T14:36:44.341Z,14.91
2023-04-24T14:39:12.265Z,15.12
2023-04-24T14:41:40.334Z,15.27
2023-04-24T14:44:07.180Z,15.63
2023-04-24T14:46:34.005Z,15.85
2023-04-24T14:49:03.524Z,16.17
2023-04-24T14:51:30.234Z,16.03
2023-04-24T14:54:00.365Z,15.62
2023-04-24T14:56:29.526Z,15.35
2023-04-24T14:58:56.628Z,15.41
2023-04-24T15:01:25.665Z,15.48
2023-04-24T15:03:53.060Z,15.36
2023-04-24T15:06:21.290Z,15.27
2023-04-24T15:08:50.255Z,15.39
2023-04-24T15:11:24.576Z,15.54
2023-04-24T15:13:51.462Z,15.28
2023-04-24T15:16:18.345Z,15.20
2023-04-24T15:18:47.422Z,15.41
2023-04-24T15:21:16.215Z,15.54
2023-04-24T15:23:45.688Z,15.55
2023-04-24T15:26:15.038Z,15.62
2023-04-24T15:28:41.657Z,15.62
2023-04-24T15:31:10.635Z,15.59
2023-04-24T15:34:00.460Z,15.48
2023-04-24T15:36:32.396Z,15.44
2023-04-24T15:38:59.471Z,15.48
2023-04-24T15:41:26.045Z,15.64
2023-04-24T15:43:52.632Z,15.82
2023-04-24T15:46:25.460Z,16.04
2023-04-24T15:48:54.481Z,16.20
2023-04-24T15:51:21.140Z,16.22
2023-04-24T15:53:48.242Z,16.25
2023-04-24T15:56:18.028Z,16.40
2023-04-24T15:58:44.583Z,16.43
2023-04-24T16:01:11.362Z,16.55
2023-04-24T16:03:40.681Z,16.38
2023-04-24T16:06:09.773Z,16.11
2023-04-24T16:08:36.679Z,16.02
2023-04-24T16:11:06.083Z,15.90
2023-04-24T16:13:35.046Z,15.79
2023-04-24T16:16:01.931Z,15.66
2023-04-24T16:18:28.568Z,15.64
2023-04-24T16:20:59.912Z,15.54
2023-04-24T16:23:26.577Z,15.49
2023-04-24T16:25:58.195Z,15.47
2023-04-24T16:28:24.894Z,15.48
2023-04-24T16:30:51.518Z,15.56
2023-04-24T16:33:19.009Z,15.59
2023-04-24T16:35:46.762Z,15.53
2023-04-24T16:38:13.331Z,15.50
2023-04-24T16:40:40.293Z,15.52
2023-04-24T16:43:09.065Z,15.46
2023-04-24T16:45:35.751Z,15.45
2023-04-24T16:48:02.635Z,15.51
2023-04-24T16:50:31.718Z,15.50
2023-04-24T16:52:58.384Z,15.47
2023-04-24T16:55:25.521Z,15.43
2023-04-24T16:57:54.778Z,15.50
2023-04-24T17:00:24.071Z,15.54
2023-04-24T17:02:51.230Z,15.65
2023-04-24T17:05:19.452Z,15.70
2023-04-24T17:07:50.648Z,15.59
2023-04-24T17:10:17.346Z,15.49
2023-04-24T17:12:43.915Z,15.65
2023-04-24T17:15:10.834Z,15.78
2023-04-24T17:17:37.506Z,15.77
2023-04-24T17:20:14.994Z,15.87
2023-04-24T17:22:48.433Z,15.76
2023-04-24T17:25:15.221Z,15.70
2023-04-24T17:27:41.815Z,15.72
2023-04-24T17:30:11.014Z,15.65
2023-04-24T17:32:40.052Z,15.58
2023-04-24T17:35:07.332Z,15.53
2023-04-24T17:37:34.057Z,15.46
2023-04-24T17:40:05.428Z,15.28
2023-04-24T17:42:32.077Z,15.15
2023-04-24T17:44:58.754Z,15.12
2023-04-24T17:47:30.716Z,15.09
2023-04-24T17:49:59.554Z,15.13
2023-04-24T17:52:28.924Z,15.07
2023-04-24T17:54:55.763Z,14.82
2023-04-24T17:57:22.381Z,14.67
2023-04-24T17:59:48.917Z,14.73
2023-04-24T18:02:15.862Z,14.79
2023-04-24T18:04:43.165Z,14.75
2023-04-24T18:07:10.092Z,14.90
2023-04-24T18:09:39.460Z,14.93
2023-04-24T18:12:08.567Z,14.85
2023-04-24T18:14:37.521Z,14.66
2023-04-24T18:17:07.157Z,14.56
2023-04-24T18:19:34.149Z,14.48
2023-04-24T18:22:09.622Z,14.26
2023-04-24T18:24:40.144Z,14.22
2023-04-24T18:27:08.947Z,14.26
2023-04-24T18:29:37.901Z,14.26
2023-04-24T18:34:50.492Z,14.31
2023-04-24T18:37:17.189Z,14.39
2023-04-24T18:39:46.984Z,14.49
2023-04-24T18:42:15.988Z,14.53
2023-04-24T18:44:44.904Z,14.47
2023-04-24T18:47:12.060Z,14.26
2023-04-24T18:49:40.336Z,14.29
2023-04-24T18:52:12.614Z,14.39
2023-04-24T18:54:43.853Z,14.25
2023-04-24T18:57:11.284Z,14.27
2023-04-24T18:59:40.198Z,14.20
2023-04-24T19:02:07.737Z,14.25
2023-04-24T19:04:43.496Z,14.17
2023-04-24T19:07:10.234Z,14.12
2023-04-24T19:09:36.999Z,14.13
2023-04-24T19:12:03.751Z,14.17
2023-04-24T19:14:40.865Z,14.28
2023-04-24T19:17:17.347Z,14.29
2023-04-24T19:19:47.078Z,14.23
2023-04-24T19:22:13.762Z,14.04
2023-04-24T19:24:40.680Z,13.92
2023-04-24T19:27:09.618Z,13.80
2023-04-24T19:29:38.863Z,13.92
2023-04-24T19:32:10.345Z,14.11
2023-04-24T19:34:41.860Z,14.15
2023-04-24T19:37:13.710Z,14.13
2023-04-24T19:39:40.517Z,14.08
2023-04-24T19:42:07.736Z,14.18
2023-04-24T19:44:34.857Z,14.27
2023-04-24T19:47:01.591Z,14.36
2023-04-24T19:49:28.455Z,14.51
2023-04-24T19:51:55.375Z,14.58
2023-04-24T19:54:22.606Z,14.58
2023-04-24T19:56:51.580Z,14.64
2023-04-24T19:59:18.240Z,14.50
2023-04-24T20:01:47.550Z,14.54
2023-04-24T20:04:14.559Z,14.65
2023-04-24T20:06:41.276Z,14.70
2023-04-24T20:09:08.225Z,14.60
2023-04-24T20:11:41.007Z,14.57
2023-04-24T20:14:10.032Z,14.55
2023-04-24T20:16:37.664Z,14.60
2023-04-24T20:19:04.427Z,14.62
2023-04-24T20:21:34.005Z,14.47
2023-04-24T20:24:04.482Z,14.12
2023-04-24T20:26:31.647Z,13.99
2023-04-24T20:28:58.328Z,14.10
2023-04-24T20:31:25.147Z,14.20
2023-04-24T20:33:56.834Z,14.34
2023-04-24T20:36:25.846Z,14.34
2023-04-24T20:38:54.700Z,14.33
2023-04-24T20:41:21.396Z,14.18
2023-04-24T20:43:48.452Z,14.22
2023-04-24T20:46:15.163Z,14.16
2023-04-24T20:48:44.210Z,14.13
2023-04-24T20:51:13.820Z,14.08
2023-04-24T20:53:40.475Z,14.12
2023-04-24T20:56:09.178Z,14.12
2023-04-24T20:58:35.853Z,14.01
2023-04-24T21:01:02.899Z,14.02
2023-04-24T21:03:32.154Z,14.15
2023-04-24T21:05:58.853Z,14.25
2023-04-24T21:08:25.465Z,14.36
2023-04-24T21:10:52.070Z,14.45
2023-04-24T21:13:19.195Z,14.41
2023-04-24T21:15:45.986Z,14.17
2023-04-24T21:18:16.203Z,14.17
2023-04-24T21:20:45.501Z,14.18
2023-04-24T21:23:14.626Z,14.11
2023-04-24T21:25:41.203Z,13.95
2023-04-24T21:28:07.834Z,13.87
2023-04-24T21:30:37.366Z,13.84
2023-04-24T21:33:05.022Z,13.92
2023-04-24T21:35:34.618Z,13.96
2023-04-24T21:38:01.399Z,13.87
2023-04-24T21:40:28.508Z,13.74
2023-04-24T21:42:55.252Z,13.62
2023-04-24T21:45:24.338Z,13.55
2023-04-24T21:47:51.028Z,13.43
2023-04-24T21:50:18.026Z,13.33
2023-04-24T21:52:47.648Z,13.35
2023-04-24T21:55:14.417Z,13.27
2023-04-24T21:57:43.361Z,13.09
2023-04-24T22:00:11.450Z,13.19
2023-04-24T22:02:39.817Z,13.19
2023-04-24T22:05:07.341Z,13.21
2023-04-24T22:07:36.580Z,13.25
2023-04-24T22:10:06.116Z,13.41
2023-04-24T22:12:33.030Z,13.37
2023-04-24T22:15:00.425Z,13.34
2023-04-24T22:17:40.394Z,13.28
2023-04-24T22:20:21.615Z,13.30
2023-04-24T22:22:51.154Z,13.46
2023-04-24T22:25:18.742Z,13.42
2023-04-24T22:27:45.376Z,13.54
2023-04-24T22:30:12.283Z,13.56
2023-04-24T22:32:39.279Z,13.57
2023-04-24T22:35:06.685Z,13.62
2023-04-24T22:37:37.769Z,13.44
2023-04-24T22:40:05.538Z,13.39
2023-04-24T22:42:32.161Z,13.50
2023-04-24T22:45:02.474Z,13.35
2023-04-24T22:47:31.609Z,13.20
2023-04-24T22:50:00.841Z,13.11
2023-04-24T22:52:30.455Z,13.11
2023-04-24T22:54:57.257Z,13.07
2023-04-24T22:57:23.884Z,13.04
2023-04-24T22:59:50.672Z,13.01
2023-04-24T23:02:17.385Z,13.04
2023-04-24T23:04:48.876Z,13.02
2023-04-24T23:07:18.564Z,12.85
2023-04-24T23:09:47.360Z,12.76
2023-04-24T23:12:13.892Z,12.74
2023-04-24T23:14:40.767Z,12.74
2023-04-24T23:17:07.437Z,12.78
2023-04-24T23:19:34.206Z,12.75
2023-04-24T23:22:01.247Z,12.71
2023-04-24T23:24:30.625Z,12.75
2023-04-24T23:27:02.489Z,12.81
2023-04-24T23:29:31.266Z,12.84
2023-04-24T23:32:05.588Z,12.82
2023-04-24T23:34:34.036Z,12.89
2023-04-24T23:37:00.954Z,12.83
2023-04-24T23:39:27.636Z,12.95
2023-04-24T23:41:56.442Z,13.02
2023-04-24T23:44:23.062Z,12.88
2023-04-24T23:46:52.113Z,12.82
2023-04-24T23:49:18.813Z,12.72
2023-04-24T23:51:45.878Z,12.74
2023-04-24T23:54:13.004Z,12.75
2023-04-24T23:56:39.580Z,12.70
2023-04-24T23:59:06.291Z,12.67
